Terminal Aerodrome Forecast
Issued by NWS

Home | Current Version | Previous Version | Text Only | Print | Product List | Glossary On
Versions: 1 2 3 4 5 6 7 8 9 10 11 12 13 14 15 16 17 18 19 20
000
FTUS46 KEKA 232337
TAFCEC
TAF
KCEC 232337Z 2400/2424 17015G25KT P6SM BKN012 OVC045
     FM240300 16018G28KT 5SM -SHRA BR BKN009 OVC025
     FM241000 17014G22KT 3SM -RA BR SCT007 OVC015
     FM241400 16010G18KT 2SM RA BR SCT004 BKN007 OVC012
     FM242000 15008KT 5SM -SHRA BR OVC020=

USA.gov is the U.S. government's official web portal to all federal, state and local government web resources and services.